sensor_id;sensor_type;location;lat;lon;timestamp;P1;durP1;ratioP1;P2;durP2;ratioP2
72275;SDS011;61204;49.980;8.358;2022-08-18T00:02:25;11.27;;;10.25;;
72275;SDS011;61204;49.980;8.358;2022-08-18T00:04:54;10.68;;;9.75;;
72275;SDS011;61204;49.980;8.358;2022-08-18T00:07:27;12.07;;;9.82;;
72275;SDS011;61204;49.980;8.358;2022-08-18T00:09:56;10.60;;;9.55;;
72275;SDS011;61204;49.980;8.358;2022-08-18T00:12:28;11.88;;;10.35;;
72275;SDS011;61204;49.980;8.358;2022-08-18T00:15:09;11.23;;;10.18;;
72275;SDS011;61204;49.980;8.358;2022-08-18T00:17:39;11.63;;;10.45;;
72275;SDS011;61204;49.980;8.358;2022-08-18T00:20:09;11.23;;;10.13;;
72275;SDS011;61204;49.980;8.358;2022-08-18T00:22:42;11.35;;;10.23;;
72275;SDS011;61204;49.980;8.358;2022-08-18T00:25:08;11.32;;;10.23;;
72275;SDS011;61204;49.980;8.358;2022-08-18T00:27:39;11.55;;;10.10;;
72275;SDS011;61204;49.980;8.358;2022-08-18T00:30:07;11.50;;;10.27;;
72275;SDS011;61204;49.980;8.358;2022-08-18T00:32:43;11.32;;;10.23;;
72275;SDS011;61204;49.980;8.358;2022-08-18T00:35:23;11.57;;;10.52;;
72275;SDS011;61204;49.980;8.358;2022-08-18T00:38:00;12.75;;;10.35;;
72275;SDS011;61204;49.980;8.358;2022-08-18T00:40:33;10.90;;;10.00;;
72275;SDS011;61204;49.980;8.358;2022-08-18T00:43:17;11.98;;;10.40;;
72275;SDS011;61204;49.980;8.358;2022-08-18T00:46:23;11.95;;;10.40;;
72275;SDS011;61204;49.980;8.358;2022-08-18T00:48:57;11.10;;;10.10;;
72275;SDS011;61204;49.980;8.358;2022-08-18T00:51:44;10.68;;;9.57;;
72275;SDS011;61204;49.980;8.358;2022-08-18T00:54:20;11.45;;;10.38;;
72275;SDS011;61204;49.980;8.358;2022-08-18T00:56:54;10.63;;;9.52;;
72275;SDS011;61204;49.980;8.358;2022-08-18T01:02:31;10.38;;;9.48;;
72275;SDS011;61204;49.980;8.358;2022-08-18T01:05:15;11.02;;;9.82;;
72275;SDS011;61204;49.980;8.358;2022-08-18T01:07:54;10.75;;;9.85;;
72275;SDS011;61204;49.980;8.358;2022-08-18T01:10:21;10.68;;;9.77;;
72275;SDS011;61204;49.980;8.358;2022-08-18T01:12:53;10.45;;;9.50;;
72275;SDS011;61204;49.980;8.358;2022-08-18T01:15:23;10.35;;;9.27;;
72275;SDS011;61204;49.980;8.358;2022-08-18T01:17:52;11.07;;;9.82;;
72275;SDS011;61204;49.980;8.358;2022-08-18T01:20:40;10.18;;;9.20;;
72275;SDS011;61204;49.980;8.358;2022-08-18T01:23:40;9.70;;;8.80;;
72275;SDS011;61204;49.980;8.358;2022-08-18T01:26:06;10.90;;;9.80;;
72275;SDS011;61204;49.980;8.358;2022-08-18T01:28:34;9.35;;;8.55;;
72275;SDS011;61204;49.980;8.358;2022-08-18T01:31:08;16.77;;;10.38;;
72275;SDS011;61204;49.980;8.358;2022-08-18T01:33:40;14.25;;;9.73;;
72275;SDS011;61204;49.980;8.358;2022-08-18T01:36:13;11.02;;;9.60;;
72275;SDS011;61204;49.980;8.358;2022-08-18T01:38:48;11.35;;;10.25;;
72275;SDS011;61204;49.980;8.358;2022-08-18T01:41:18;10.30;;;9.38;;
72275;SDS011;61204;49.980;8.358;2022-08-18T01:43:47;9.98;;;8.98;;
72275;SDS011;61204;49.980;8.358;2022-08-18T01:46:17;10.63;;;9.52;;
72275;SDS011;61204;49.980;8.358;2022-08-18T01:48:48;10.03;;;9.03;;
72275;SDS011;61204;49.980;8.358;2022-08-18T01:51:16;9.35;;;8.57;;
72275;SDS011;61204;49.980;8.358;2022-08-18T01:53:43;9.90;;;9.00;;
72275;SDS011;61204;49.980;8.358;2022-08-18T01:56:10;9.30;;;8.35;;
72275;SDS011;61204;49.980;8.358;2022-08-18T01:58:41;10.77;;;8.75;;
72275;SDS011;61204;49.980;8.358;2022-08-18T02:01:10;10.07;;;9.18;;
72275;SDS011;61204;49.980;8.358;2022-08-18T02:03:38;8.85;;;8.07;;
72275;SDS011;61204;49.980;8.358;2022-08-18T02:06:17;9.65;;;8.63;;
72275;SDS011;61204;49.980;8.358;2022-08-18T02:08:45;10.35;;;9.45;;
72275;SDS011;61204;49.980;8.358;2022-08-18T02:11:12;13.10;;;11.85;;
72275;SDS011;61204;49.980;8.358;2022-08-18T02:13:39;12.93;;;11.25;;
72275;SDS011;61204;49.980;8.358;2022-08-18T02:16:06;13.10;;;10.73;;
72275;SDS011;61204;49.980;8.358;2022-08-18T02:18:33;12.13;;;10.95;;
72275;SDS011;61204;49.980;8.358;2022-08-18T02:21:06;13.13;;;11.93;;
72275;SDS011;61204;49.980;8.358;2022-08-18T02:23:42;13.18;;;11.80;;
72275;SDS011;61204;49.980;8.358;2022-08-18T02:26:12;11.90;;;10.75;;
72275;SDS011;61204;49.980;8.358;2022-08-18T02:28:43;18.25;;;11.63;;
72275;SDS011;61204;49.980;8.358;2022-08-18T02:31:14;12.50;;;11.30;;
72275;SDS011;61204;49.980;8.358;2022-08-18T02:33:45;11.27;;;10.20;;
72275;SDS011;61204;49.980;8.358;2022-08-18T02:36:12;15.15;;;10.25;;
72275;SDS011;61204;49.980;8.358;2022-08-18T02:38:39;10.32;;;9.15;;
72275;SDS011;61204;49.980;8.358;2022-08-18T02:41:07;11.00;;;9.88;;
72275;SDS011;61204;49.980;8.358;2022-08-18T02:43:37;12.10;;;9.63;;
72275;SDS011;61204;49.980;8.358;2022-08-18T02:46:06;11.00;;;9.68;;
72275;SDS011;61204;49.980;8.358;2022-08-18T02:48:32;10.15;;;9.13;;
72275;SDS011;61204;49.980;8.358;2022-08-18T02:51:04;13.25;;;9.70;;
72275;SDS011;61204;49.980;8.358;2022-08-18T02:53:32;10.95;;;9.13;;
72275;SDS011;61204;49.980;8.358;2022-08-18T02:56:06;9.90;;;9.00;;
72275;SDS011;61204;49.980;8.358;2022-08-18T02:58:59;14.95;;;9.27;;
72275;SDS011;61204;49.980;8.358;2022-08-18T03:01:32;9.63;;;8.60;;
72275;SDS011;61204;49.980;8.358;2022-08-18T03:04:06;11.40;;;9.00;;
72275;SDS011;61204;49.980;8.358;2022-08-18T03:06:38;9.77;;;8.70;;
72275;SDS011;61204;49.980;8.358;2022-08-18T03:09:04;11.75;;;8.88;;
72275;SDS011;61204;49.980;8.358;2022-08-18T03:11:33;8.88;;;7.80;;
72275;SDS011;61204;49.980;8.358;2022-08-18T03:14:02;9.63;;;7.85;;
72275;SDS011;61204;49.980;8.358;2022-08-18T03:16:29;10.02;;;8.45;;
72275;SDS011;61204;49.980;8.358;2022-08-18T03:18:57;10.02;;;8.35;;
72275;SDS011;61204;49.980;8.358;2022-08-18T03:21:25;10.05;;;8.15;;
72275;SDS011;61204;49.980;8.358;2022-08-18T03:26:29;8.85;;;7.90;;
72275;SDS011;61204;49.980;8.358;2022-08-18T03:28:58;9.98;;;8.05;;
72275;SDS011;61204;49.980;8.358;2022-08-18T03:31:28;8.50;;;7.63;;
72275;SDS011;61204;49.980;8.358;2022-08-18T03:34:02;8.55;;;7.68;;
72275;SDS011;61204;49.980;8.358;2022-08-18T03:36:33;12.20;;;8.20;;
72275;SDS011;61204;49.980;8.358;2022-08-18T03:39:03;8.25;;;7.18;;
72275;SDS011;61204;49.980;8.358;2022-08-18T03:41:37;8.43;;;7.60;;
72275;SDS011;61204;49.980;8.358;2022-08-18T03:44:10;8.80;;;7.97;;
72275;SDS011;61204;49.980;8.358;2022-08-18T03:46:39;9.90;;;8.35;;
72275;SDS011;61204;49.980;8.358;2022-08-18T03:49:08;9.82;;;8.65;;
72275;SDS011;61204;49.980;8.358;2022-08-18T03:51:34;8.07;;;7.38;;
72275;SDS011;61204;49.980;8.358;2022-08-18T03:54:02;9.38;;;7.97;;
72275;SDS011;61204;49.980;8.358;2022-08-18T03:56:31;8.65;;;7.20;;
72275;SDS011;61204;49.980;8.358;2022-08-18T03:59:05;7.68;;;6.15;;
72275;SDS011;61204;49.980;8.358;2022-08-18T04:01:45;9.00;;;7.68;;
72275;SDS011;61204;49.980;8.358;2022-08-18T04:04:15;10.65;;;7.20;;
72275;SDS011;61204;49.980;8.358;2022-08-18T04:06:48;8.32;;;7.07;;
72275;SDS011;61204;49.980;8.358;2022-08-18T04:09:22;11.15;;;6.97;;
72275;SDS011;61204;49.980;8.358;2022-08-18T04:11:53;8.48;;;7.20;;
72275;SDS011;61204;49.980;8.358;2022-08-18T04:14:22;9.20;;;6.10;;
72275;SDS011;61204;49.980;8.358;2022-08-18T04:16:56;8.73;;;6.25;;
72275;SDS011;61204;49.980;8.358;2022-08-18T04:19:24;6.95;;;6.35;;
72275;SDS011;61204;49.980;8.358;2022-08-18T04:21:58;11.13;;;7.18;;
72275;SDS011;61204;49.980;8.358;2022-08-18T04:24:31;7.63;;;6.85;;
72275;SDS011;61204;49.980;8.358;2022-08-18T04:26:59;9.40;;;7.05;;
72275;SDS011;61204;49.980;8.358;2022-08-18T04:29:28;7.78;;;6.25;;
72275;SDS011;61204;49.980;8.358;2022-08-18T04:31:55;7.60;;;6.90;;
72275;SDS011;61204;49.980;8.358;2022-08-18T04:34:26;7.25;;;5.78;;
72275;SDS011;61204;49.980;8.358;2022-08-18T04:36:53;6.70;;;6.10;;
72275;SDS011;61204;49.980;8.358;2022-08-18T04:39:19;6.97;;;6.30;;
72275;SDS011;61204;49.980;8.358;2022-08-18T04:41:45;7.68;;;6.38;;
72275;SDS011;61204;49.980;8.358;2022-08-18T04:44:12;6.93;;;6.22;;
72275;SDS011;61204;49.980;8.358;2022-08-18T04:46:42;8.52;;;6.38;;
72275;SDS011;61204;49.980;8.358;2022-08-18T04:49:19;9.13;;;6.82;;
72275;SDS011;61204;49.980;8.358;2022-08-18T04:51:50;6.35;;;5.75;;
72275;SDS011;61204;49.980;8.358;2022-08-18T04:54:38;8.48;;;6.47;;
72275;SDS011;61204;49.980;8.358;2022-08-18T04:57:06;13.52;;;7.35;;
72275;SDS011;61204;49.980;8.358;2022-08-18T04:59:44;11.85;;;6.88;;
72275;SDS011;61204;49.980;8.358;2022-08-18T05:02:14;9.60;;;7.65;;
72275;SDS011;61204;49.980;8.358;2022-08-18T05:04:44;8.48;;;6.80;;
72275;SDS011;61204;49.980;8.358;2022-08-18T05:07:11;7.95;;;6.70;;
72275;SDS011;61204;49.980;8.358;2022-08-18T05:09:42;12.60;;;6.80;;
72275;SDS011;61204;49.980;8.358;2022-08-18T05:12:09;7.20;;;6.50;;
72275;SDS011;61204;49.980;8.358;2022-08-18T05:14:40;8.55;;;6.32;;
72275;SDS011;61204;49.980;8.358;2022-08-18T05:17:11;9.70;;;7.50;;
72275;SDS011;61204;49.980;8.358;2022-08-18T05:19:40;9.05;;;7.03;;
72275;SDS011;61204;49.980;8.358;2022-08-18T05:22:08;7.80;;;6.72;;
72275;SDS011;61204;49.980;8.358;2022-08-18T05:24:34;8.25;;;6.45;;
72275;SDS011;61204;49.980;8.358;2022-08-18T05:27:01;11.65;;;6.68;;
72275;SDS011;61204;49.980;8.358;2022-08-18T05:29:29;8.77;;;6.53;;
72275;SDS011;61204;49.980;8.358;2022-08-18T05:32:00;10.60;;;6.75;;
72275;SDS011;61204;49.980;8.358;2022-08-18T05:34:32;8.85;;;6.28;;
72275;SDS011;61204;49.980;8.358;2022-08-18T05:40:25;7.72;;;6.53;;
72275;SDS011;61204;49.980;8.358;2022-08-18T05:42:53;9.40;;;7.25;;
72275;SDS011;61204;49.980;8.358;2022-08-18T05:45:23;8.40;;;6.70;;
72275;SDS011;61204;49.980;8.358;2022-08-18T05:47:51;7.63;;;6.80;;
72275;SDS011;61204;49.980;8.358;2022-08-18T05:50:24;23.02;;;8.85;;
72275;SDS011;61204;49.980;8.358;2022-08-18T05:52:57;18.20;;;7.75;;
72275;SDS011;61204;49.980;8.358;2022-08-18T05:58:48;11.52;;;6.85;;
72275;SDS011;61204;49.980;8.358;2022-08-18T06:04:05;7.85;;;7.05;;
72275;SDS011;61204;49.980;8.358;2022-08-18T06:06:55;8.05;;;7.30;;
72275;SDS011;61204;49.980;8.358;2022-08-18T06:09:25;11.35;;;8.02;;
72275;SDS011;61204;49.980;8.358;2022-08-18T06:12:07;13.15;;;7.43;;
72275;SDS011;61204;49.980;8.358;2022-08-18T06:14:49;8.50;;;7.15;;
72275;SDS011;61204;49.980;8.358;2022-08-18T06:21:03;10.00;;;8.13;;
72275;SDS011;61204;49.980;8.358;2022-08-18T06:30:16;10.30;;;8.70;;
72275;SDS011;61204;49.980;8.358;2022-08-18T06:36:33;12.88;;;11.45;;
72275;SDS011;61204;49.980;8.358;2022-08-18T06:42:10;13.48;;;12.07;;
72275;SDS011;61204;49.980;8.358;2022-08-18T06:44:38;13.30;;;11.82;;
72275;SDS011;61204;49.980;8.358;2022-08-18T06:50:37;14.48;;;12.98;;
72275;SDS011;61204;49.980;8.358;2022-08-18T07:02:53;18.35;;;13.75;;
72275;SDS011;61204;49.980;8.358;2022-08-18T07:05:36;15.35;;;13.80;;
72275;SDS011;61204;49.980;8.358;2022-08-18T07:08:32;16.85;;;15.00;;
72275;SDS011;61204;49.980;8.358;2022-08-18T07:13:42;15.98;;;14.30;;
72275;SDS011;61204;49.980;8.358;2022-08-18T07:16:35;17.40;;;15.60;;
72275;SDS011;61204;49.980;8.358;2022-08-18T07:19:07;17.48;;;15.93;;
72275;SDS011;61204;49.980;8.358;2022-08-18T07:21:41;17.75;;;15.88;;
72275;SDS011;61204;49.980;8.358;2022-08-18T07:27:15;17.52;;;15.88;;
72275;SDS011;61204;49.980;8.358;2022-08-18T07:33:17;18.27;;;16.27;;
72275;SDS011;61204;49.980;8.358;2022-08-18T07:35:52;16.77;;;15.18;;
72275;SDS011;61204;49.980;8.358;2022-08-18T07:38:41;16.58;;;14.88;;
72275;SDS011;61204;49.980;8.358;2022-08-18T07:41:22;18.83;;;13.63;;
72275;SDS011;61204;49.980;8.358;2022-08-18T07:44:06;15.30;;;13.52;;
72275;SDS011;61204;49.980;8.358;2022-08-18T07:46:52;14.65;;;13.27;;
72275;SDS011;61204;49.980;8.358;2022-08-18T07:49:42;15.07;;;13.57;;
72275;SDS011;61204;49.980;8.358;2022-08-18T07:55:06;15.25;;;12.68;;
72275;SDS011;61204;49.980;8.358;2022-08-18T07:58:23;14.90;;;13.48;;
72275;SDS011;61204;49.980;8.358;2022-08-18T08:07:25;13.63;;;12.25;;
72275;SDS011;61204;49.980;8.358;2022-08-18T08:15:54;14.07;;;12.25;;
72275;SDS011;61204;49.980;8.358;2022-08-18T08:18:43;13.93;;;12.50;;
72275;SDS011;61204;49.980;8.358;2022-08-18T08:21:48;15.10;;;13.32;;
72275;SDS011;61204;49.980;8.358;2022-08-18T08:25:25;15.57;;;14.07;;
72275;SDS011;61204;49.980;8.358;2022-08-18T08:34:23;14.70;;;12.70;;
72275;SDS011;61204;49.980;8.358;2022-08-18T08:37:31;16.83;;;14.73;;
72275;SDS011;61204;49.980;8.358;2022-08-18T08:40:22;19.85;;;13.60;;
72275;SDS011;61204;49.980;8.358;2022-08-18T08:42:57;17.17;;;14.63;;
72275;SDS011;61204;49.980;8.358;2022-08-18T08:45:48;15.98;;;14.38;;
72275;SDS011;61204;49.980;8.358;2022-08-18T08:49:10;15.93;;;14.30;;
72275;SDS011;61204;49.980;8.358;2022-08-18T08:51:57;15.60;;;14.10;;
72275;SDS011;61204;49.980;8.358;2022-08-18T08:54:44;14.25;;;12.82;;
72275;SDS011;61204;49.980;8.358;2022-08-18T08:57:21;14.40;;;13.02;;
72275;SDS011;61204;49.980;8.358;2022-08-18T08:59:56;14.13;;;12.75;;
72275;SDS011;61204;49.980;8.358;2022-08-18T09:05:17;14.55;;;13.18;;
72275;SDS011;61204;49.980;8.358;2022-08-18T09:07:58;16.30;;;13.55;;
72275;SDS011;61204;49.980;8.358;2022-08-18T09:20:34;14.85;;;13.40;;
72275;SDS011;61204;49.980;8.358;2022-08-18T09:23:27;16.33;;;14.00;;
72275;SDS011;61204;49.980;8.358;2022-08-18T09:38:18;11.85;;;10.75;;
72275;SDS011;61204;49.980;8.358;2022-08-18T09:41:16;11.90;;;10.85;;
72275;SDS011;61204;49.980;8.358;2022-08-18T09:51:59;11.15;;;10.15;;
72275;SDS011;61204;49.980;8.358;2022-08-18T09:57:40;10.90;;;9.85;;
72275;SDS011;61204;49.980;8.358;2022-08-18T10:10:29;11.63;;;10.52;;
72275;SDS011;61204;49.980;8.358;2022-08-18T10:20:03;12.57;;;10.90;;
72275;SDS011;61204;49.980;8.358;2022-08-18T10:23:04;11.77;;;10.68;;
72275;SDS011;61204;49.980;8.358;2022-08-18T10:25:35;12.32;;;11.20;;
72275;SDS011;61204;49.980;8.358;2022-08-18T10:28:50;12.10;;;11.10;;
72275;SDS011;61204;49.980;8.358;2022-08-18T10:31:28;12.13;;;10.93;;
72275;SDS011;61204;49.980;8.358;2022-08-18T10:37:18;12.57;;;11.38;;
72275;SDS011;61204;49.980;8.358;2022-08-18T10:42:41;13.43;;;12.20;;
72275;SDS011;61204;49.980;8.358;2022-08-18T10:45:30;14.50;;;12.60;;
72275;SDS011;61204;49.980;8.358;2022-08-18T10:48:09;12.27;;;11.18;;
72275;SDS011;61204;49.980;8.358;2022-08-18T10:50:52;12.30;;;10.98;;
72275;SDS011;61204;49.980;8.358;2022-08-18T10:56:43;12.77;;;11.57;;
72275;SDS011;61204;49.980;8.358;2022-08-18T10:59:32;12.27;;;11.18;;
72275;SDS011;61204;49.980;8.358;2022-08-18T11:05:45;11.57;;;10.48;;
72275;SDS011;61204;49.980;8.358;2022-08-18T11:08:18;11.48;;;10.38;;
72275;SDS011;61204;49.980;8.358;2022-08-18T11:10:47;11.05;;;9.95;;
72275;SDS011;61204;49.980;8.358;2022-08-18T11:13:24;11.27;;;10.27;;
72275;SDS011;61204;49.980;8.358;2022-08-18T11:19:10;12.75;;;11.65;;
72275;SDS011;61204;49.980;8.358;2022-08-18T11:21:43;12.65;;;11.50;;
72275;SDS011;61204;49.980;8.358;2022-08-18T11:24:28;12.25;;;10.77;;
72275;SDS011;61204;49.980;8.358;2022-08-18T11:27:06;11.30;;;10.15;;
72275;SDS011;61204;49.980;8.358;2022-08-18T11:29:48;12.55;;;11.23;;
72275;SDS011;61204;49.980;8.358;2022-08-18T11:32:23;12.60;;;11.40;;
72275;SDS011;61204;49.980;8.358;2022-08-18T11:35:03;13.07;;;11.98;;
72275;SDS011;61204;49.980;8.358;2022-08-18T11:37:59;9.65;;;8.85;;
72275;SDS011;61204;49.980;8.358;2022-08-18T11:40:36;11.18;;;10.20;;
72275;SDS011;61204;49.980;8.358;2022-08-18T11:45:57;11.93;;;8.30;;
72275;SDS011;61204;49.980;8.358;2022-08-18T11:56:24;9.93;;;8.93;;
72275;SDS011;61204;49.980;8.358;2022-08-18T11:59:01;9.65;;;8.60;;
72275;SDS011;61204;49.980;8.358;2022-08-18T12:01:54;11.65;;;10.55;;
72275;SDS011;61204;49.980;8.358;2022-08-18T12:04:39;14.23;;;12.85;;
72275;SDS011;61204;49.980;8.358;2022-08-18T12:07:11;10.35;;;9.55;;
72275;SDS011;61204;49.980;8.358;2022-08-18T12:10:13;12.60;;;11.40;;
72275;SDS011;61204;49.980;8.358;2022-08-18T12:12:47;10.10;;;9.23;;
72275;SDS011;61204;49.980;8.358;2022-08-18T12:17:47;8.73;;;7.88;;
72275;SDS011;61204;49.980;8.358;2022-08-18T12:20:13;9.45;;;8.65;;
72275;SDS011;61204;49.980;8.358;2022-08-18T12:22:42;8.63;;;7.93;;
72275;SDS011;61204;49.980;8.358;2022-08-18T12:25:12;8.13;;;7.32;;
72275;SDS011;61204;49.980;8.358;2022-08-18T12:27:42;8.15;;;7.40;;
72275;SDS011;61204;49.980;8.358;2022-08-18T12:30:08;7.18;;;6.68;;
72275;SDS011;61204;49.980;8.358;2022-08-18T12:32:37;7.88;;;7.18;;
72275;SDS011;61204;49.980;8.358;2022-08-18T12:35:04;7.35;;;6.78;;
72275;SDS011;61204;49.980;8.358;2022-08-18T12:37:35;8.05;;;7.43;;
72275;SDS011;61204;49.980;8.358;2022-08-18T12:40:07;7.05;;;6.35;;
72275;SDS011;61204;49.980;8.358;2022-08-18T12:42:35;8.02;;;7.32;;
72275;SDS011;61204;49.980;8.358;2022-08-18T12:45:01;7.65;;;6.68;;
72275;SDS011;61204;49.980;8.358;2022-08-18T12:47:28;7.78;;;7.00;;
72275;SDS011;61204;49.980;8.358;2022-08-18T12:49:54;6.75;;;6.15;;
72275;SDS011;61204;49.980;8.358;2022-08-18T12:52:21;10.63;;;7.53;;
72275;SDS011;61204;49.980;8.358;2022-08-18T12:54:47;5.60;;;4.70;;
72275;SDS011;61204;49.980;8.358;2022-08-18T12:57:23;6.82;;;5.93;;
72275;SDS011;61204;49.980;8.358;2022-08-18T12:59:51;5.82;;;5.20;;
72275;SDS011;61204;49.980;8.358;2022-08-18T13:02:18;5.70;;;5.20;;
72275;SDS011;61204;49.980;8.358;2022-08-18T13:04:45;5.38;;;4.80;;
72275;SDS011;61204;49.980;8.358;2022-08-18T13:07:11;4.88;;;4.47;;
72275;SDS011;61204;49.980;8.358;2022-08-18T13:09:40;4.72;;;4.32;;
72275;SDS011;61204;49.980;8.358;2022-08-18T13:12:09;5.75;;;5.10;;
72275;SDS011;61204;49.980;8.358;2022-08-18T13:14:38;5.72;;;5.22;;
72275;SDS011;61204;49.980;8.358;2022-08-18T13:17:04;6.22;;;5.70;;
72275;SDS011;61204;49.980;8.358;2022-08-18T13:19:30;6.20;;;5.70;;
72275;SDS011;61204;49.980;8.358;2022-08-18T13:21:56;6.35;;;5.47;;
72275;SDS011;61204;49.980;8.358;2022-08-18T13:24:22;5.72;;;5.05;;
72275;SDS011;61204;49.980;8.358;2022-08-18T13:26:48;6.50;;;5.90;;
72275;SDS011;61204;49.980;8.358;2022-08-18T13:29:16;5.38;;;4.88;;
72275;SDS011;61204;49.980;8.358;2022-08-18T13:31:43;5.80;;;5.28;;
72275;SDS011;61204;49.980;8.358;2022-08-18T13:34:10;5.43;;;4.93;;
72275;SDS011;61204;49.980;8.358;2022-08-18T13:36:39;5.60;;;4.88;;
72275;SDS011;61204;49.980;8.358;2022-08-18T13:39:15;5.28;;;4.88;;
72275;SDS011;61204;49.980;8.358;2022-08-18T13:41:48;5.63;;;5.13;;
72275;SDS011;61204;49.980;8.358;2022-08-18T13:44:18;4.95;;;4.45;;
72275;SDS011;61204;49.980;8.358;2022-08-18T13:46:51;4.57;;;4.18;;
72275;SDS011;61204;49.980;8.358;2022-08-18T13:49:20;4.78;;;4.38;;
72275;SDS011;61204;49.980;8.358;2022-08-18T13:51:49;4.70;;;4.20;;
72275;SDS011;61204;49.980;8.358;2022-08-18T13:54:28;5.10;;;4.70;;
72275;SDS011;61204;49.980;8.358;2022-08-18T13:56:58;5.53;;;5.03;;
72275;SDS011;61204;49.980;8.358;2022-08-18T13:59:26;9.45;;;5.88;;
72275;SDS011;61204;49.980;8.358;2022-08-18T14:01:56;5.63;;;5.05;;
72275;SDS011;61204;49.980;8.358;2022-08-18T14:04:25;5.90;;;5.22;;
72275;SDS011;61204;49.980;8.358;2022-08-18T14:06:52;5.57;;;5.07;;
72275;SDS011;61204;49.980;8.358;2022-08-18T14:09:21;5.43;;;4.97;;
72275;SDS011;61204;49.980;8.358;2022-08-18T14:11:49;5.65;;;5.15;;
72275;SDS011;61204;49.980;8.358;2022-08-18T14:14:15;6.35;;;5.72;;
72275;SDS011;61204;49.980;8.358;2022-08-18T14:16:42;7.15;;;5.55;;
72275;SDS011;61204;49.980;8.358;2022-08-18T14:19:08;6.15;;;5.47;;
72275;SDS011;61204;49.980;8.358;2022-08-18T14:21:52;6.40;;;5.28;;
72275;SDS011;61204;49.980;8.358;2022-08-18T14:24:39;5.97;;;5.47;;
72275;SDS011;61204;49.980;8.358;2022-08-18T14:27:29;7.70;;;5.40;;
72275;SDS011;61204;49.980;8.358;2022-08-18T14:30:06;5.35;;;4.93;;
72275;SDS011;61204;49.980;8.358;2022-08-18T14:32:36;6.45;;;5.85;;
72275;SDS011;61204;49.980;8.358;2022-08-18T14:35:06;6.43;;;5.82;;
72275;SDS011;61204;49.980;8.358;2022-08-18T14:37:36;5.82;;;5.32;;
72275;SDS011;61204;49.980;8.358;2022-08-18T14:40:02;5.53;;;5.13;;
72275;SDS011;61204;49.980;8.358;2022-08-18T14:42:31;5.85;;;5.38;;
72275;SDS011;61204;49.980;8.358;2022-08-18T14:44:58;5.65;;;5.15;;
72275;SDS011;61204;49.980;8.358;2022-08-18T14:47:24;5.90;;;5.38;;
72275;SDS011;61204;49.980;8.358;2022-08-18T14:49:54;6.50;;;5.85;;
72275;SDS011;61204;49.980;8.358;2022-08-18T14:52:22;6.63;;;5.50;;
72275;SDS011;61204;49.980;8.358;2022-08-18T14:54:49;5.95;;;5.40;;
72275;SDS011;61204;49.980;8.358;2022-08-18T14:57:16;6.10;;;5.50;;
72275;SDS011;61204;49.980;8.358;2022-08-18T14:59:42;6.50;;;5.80;;
72275;SDS011;61204;49.980;8.358;2022-08-18T15:02:09;6.43;;;5.93;;
72275;SDS011;61204;49.980;8.358;2022-08-18T15:04:36;6.80;;;6.00;;
72275;SDS011;61204;49.980;8.358;2022-08-18T15:07:03;6.75;;;6.13;;
72275;SDS011;61204;49.980;8.358;2022-08-18T15:09:30;7.25;;;6.60;;
72275;SDS011;61204;49.980;8.358;2022-08-18T15:11:56;7.95;;;7.25;;
72275;SDS011;61204;49.980;8.358;2022-08-18T15:14:24;8.27;;;7.47;;
72275;SDS011;61204;49.980;8.358;2022-08-18T15:16:55;8.95;;;8.05;;
72275;SDS011;61204;49.980;8.358;2022-08-18T15:19:23;10.05;;;7.30;;
72275;SDS011;61204;49.980;8.358;2022-08-18T15:21:51;8.25;;;7.47;;
72275;SDS011;61204;49.980;8.358;2022-08-18T15:24:38;8.32;;;7.63;;
72275;SDS011;61204;49.980;8.358;2022-08-18T15:27:29;8.32;;;7.55;;
72275;SDS011;61204;49.980;8.358;2022-08-18T15:30:07;7.97;;;7.28;;
72275;SDS011;61204;49.980;8.358;2022-08-18T15:35:10;8.07;;;7.38;;
72275;SDS011;61204;49.980;8.358;2022-08-18T15:37:42;9.95;;;9.13;;
72275;SDS011;61204;49.980;8.358;2022-08-18T15:40:17;11.70;;;10.70;;
72275;SDS011;61204;49.980;8.358;2022-08-18T15:42:52;13.32;;;11.93;;
72275;SDS011;61204;49.980;8.358;2022-08-18T15:45:29;12.55;;;11.35;;
72275;SDS011;61204;49.980;8.358;2022-08-18T15:48:02;11.77;;;10.77;;
72275;SDS011;61204;49.980;8.358;2022-08-18T15:50:29;12.63;;;10.93;;
72275;SDS011;61204;49.980;8.358;2022-08-18T15:52:59;11.93;;;10.82;;
72275;SDS011;61204;49.980;8.358;2022-08-18T15:55:31;11.05;;;10.15;;
72275;SDS011;61204;49.980;8.358;2022-08-18T15:58:01;11.07;;;10.05;;
72275;SDS011;61204;49.980;8.358;2022-08-18T16:00:28;10.60;;;9.65;;
72275;SDS011;61204;49.980;8.358;2022-08-18T16:03:01;9.48;;;8.57;;
72275;SDS011;61204;49.980;8.358;2022-08-18T16:05:34;10.30;;;9.40;;
72275;SDS011;61204;49.980;8.358;2022-08-18T16:08:05;10.45;;;9.52;;
72275;SDS011;61204;49.980;8.358;2022-08-18T16:10:34;11.63;;;10.48;;
72275;SDS011;61204;49.980;8.358;2022-08-18T16:13:04;11.70;;;10.38;;
72275;SDS011;61204;49.980;8.358;2022-08-18T16:15:35;10.63;;;9.52;;
72275;SDS011;61204;49.980;8.358;2022-08-18T16:18:05;10.33;;;9.33;;
72275;SDS011;61204;49.980;8.358;2022-08-18T16:20:34;10.13;;;9.23;;
72275;SDS011;61204;49.980;8.358;2022-08-18T16:23:05;9.70;;;8.80;;
72275;SDS011;61204;49.980;8.358;2022-08-18T16:25:31;9.88;;;8.95;;
72275;SDS011;61204;49.980;8.358;2022-08-18T16:28:02;8.73;;;7.93;;
72275;SDS011;61204;49.980;8.358;2022-08-18T16:30:29;9.75;;;8.63;;
72275;SDS011;61204;49.980;8.358;2022-08-18T16:32:58;9.40;;;8.45;;
72275;SDS011;61204;49.980;8.358;2022-08-18T16:35:32;9.30;;;8.52;;
72275;SDS011;61204;49.980;8.358;2022-08-18T16:38:06;12.25;;;8.90;;
72275;SDS011;61204;49.980;8.358;2022-08-18T16:43:02;9.60;;;8.80;;
72275;SDS011;61204;49.980;8.358;2022-08-18T16:45:28;13.18;;;9.63;;
72275;SDS011;61204;49.980;8.358;2022-08-18T16:47:57;10.75;;;9.23;;
72275;SDS011;61204;49.980;8.358;2022-08-18T17:36:55;11.45;;;10.35;;
72275;SDS011;61204;49.980;8.358;2022-08-18T17:39:30;11.13;;;9.65;;
72275;SDS011;61204;49.980;8.358;2022-08-18T17:42:04;11.07;;;9.77;;
72275;SDS011;61204;49.980;8.358;2022-08-18T17:47:24;12.15;;;10.95;;
72275;SDS011;61204;49.980;8.358;2022-08-18T17:50:00;11.38;;;10.18;;
72275;SDS011;61204;49.980;8.358;2022-08-18T17:53:00;11.23;;;10.20;;
72275;SDS011;61204;49.980;8.358;2022-08-18T17:55:34;11.80;;;10.32;;
72275;SDS011;61204;49.980;8.358;2022-08-18T17:58:43;11.48;;;10.27;;
72275;SDS011;61204;49.980;8.358;2022-08-18T18:01:27;11.55;;;10.40;;
72275;SDS011;61204;49.980;8.358;2022-08-18T18:03:55;11.35;;;10.25;;
72275;SDS011;61204;49.980;8.358;2022-08-18T18:06:28;10.75;;;9.75;;
72275;SDS011;61204;49.980;8.358;2022-08-18T18:09:09;10.50;;;9.30;;
72275;SDS011;61204;49.980;8.358;2022-08-18T18:11:54;11.88;;;9.18;;
72275;SDS011;61204;49.980;8.358;2022-08-18T18:14:36;9.93;;;9.02;;
72275;SDS011;61204;49.980;8.358;2022-08-18T18:19:48;12.30;;;9.05;;
72275;SDS011;61204;49.980;8.358;2022-08-18T18:22:21;10.03;;;9.03;;
72275;SDS011;61204;49.980;8.358;2022-08-18T18:24:59;10.20;;;8.57;;
72275;SDS011;61204;49.980;8.358;2022-08-18T18:27:40;9.65;;;8.75;;
72275;SDS011;61204;49.980;8.358;2022-08-18T18:32:58;11.48;;;8.43;;
72275;SDS011;61204;49.980;8.358;2022-08-18T18:35:48;10.25;;;9.15;;
72275;SDS011;61204;49.980;8.358;2022-08-18T18:38:34;9.55;;;8.60;;
72275;SDS011;61204;49.980;8.358;2022-08-18T18:43:40;8.48;;;7.65;;
72275;SDS011;61204;49.980;8.358;2022-08-18T18:46:22;10.00;;;8.57;;
72275;SDS011;61204;49.980;8.358;2022-08-18T18:49:16;11.10;;;8.65;;
72275;SDS011;61204;49.980;8.358;2022-08-18T18:52:11;9.75;;;8.75;;
72275;SDS011;61204;49.980;8.358;2022-08-18T18:55:24;10.15;;;8.73;;
72275;SDS011;61204;49.980;8.358;2022-08-18T19:00:59;9.50;;;8.52;;
72275;SDS011;61204;49.980;8.358;2022-08-18T19:03:52;10.30;;;9.30;;